sensor_id;sensor_type;location;lat;lon;timestamp;temperature;humidity
40289;DHT22;28991;52.028;5.526;2023-02-10T00:01:20;18.80;35.00
40289;DHT22;28991;52.028;5.526;2023-02-10T00:03:47;18.70;34.90
40289;DHT22;28991;52.028;5.526;2023-02-10T00:06:14;18.90;35.10
40289;DHT22;28991;52.028;5.526;2023-02-10T00:08:40;18.70;34.90
40289;DHT22;28991;52.028;5.526;2023-02-10T00:11:08;18.70;35.00
40289;DHT22;28991;52.028;5.526;2023-02-10T00:13:36;19.00;35.10
40289;DHT22;28991;52.028;5.526;2023-02-10T00:16:04;18.70;35.00
40289;DHT22;28991;52.028;5.526;2023-02-10T00:18:30;18.60;34.90
40289;DHT22;28991;52.028;5.526;2023-02-10T00:20:56;18.70;35.10
40289;DHT22;28991;52.028;5.526;2023-02-10T00:23:22;18.70;35.10
40289;DHT22;28991;52.028;5.526;2023-02-10T00:25:48;18.80;35.10
40289;DHT22;28991;52.028;5.526;2023-02-10T00:28:13;18.80;35.10
40289;DHT22;28991;52.028;5.526;2023-02-10T00:30:39;18.80;35.10
40289;DHT22;28991;52.028;5.526;2023-02-10T00:33:05;18.50;35.00
40289;DHT22;28991;52.028;5.526;2023-02-10T00:35:31;18.80;35.10
40289;DHT22;28991;52.028;5.526;2023-02-10T00:37:57;18.30;34.90
40289;DHT22;28991;52.028;5.526;2023-02-10T00:40:22;18.70;35.20
40289;DHT22;28991;52.028;5.526;2023-02-10T00:42:48;18.70;35.20
40289;DHT22;28991;52.028;5.526;2023-02-10T00:45:14;18.60;35.10
40289;DHT22;28991;52.028;5.526;2023-02-10T00:47:39;18.70;35.10
40289;DHT22;28991;52.028;5.526;2023-02-10T00:50:05;18.40;35.00
40289;DHT22;28991;52.028;5.526;2023-02-10T00:52:31;18.70;35.20
40289;DHT22;28991;52.028;5.526;2023-02-10T00:54:57;18.90;35.30
40289;DHT22;28991;52.028;5.526;2023-02-10T00:57:22;18.90;35.40
40289;DHT22;28991;52.028;5.526;2023-02-10T00:59:48;18.70;35.20
40289;DHT22;28991;52.028;5.526;2023-02-10T01:02:13;19.00;35.40
40289;DHT22;28991;52.028;5.526;2023-02-10T01:04:39;18.70;35.20
40289;DHT22;28991;52.028;5.526;2023-02-10T01:07:04;18.70;35.30
40289;DHT22;28991;52.028;5.526;2023-02-10T01:09:30;18.30;35.10
40289;DHT22;28991;52.028;5.526;2023-02-10T01:11:56;18.70;35.30
40289;DHT22;28991;52.028;5.526;2023-02-10T01:14:22;18.60;35.20
40289;DHT22;28991;52.028;5.526;2023-02-10T01:16:47;18.80;35.30
40289;DHT22;28991;52.028;5.526;2023-02-10T01:19:13;18.20;35.10
40289;DHT22;28991;52.028;5.526;2023-02-10T01:21:38;17.80;34.90
40289;DHT22;28991;52.028;5.526;2023-02-10T01:24:06;18.80;35.40
40289;DHT22;28991;52.028;5.526;2023-02-10T01:26:32;18.60;35.30
40289;DHT22;28991;52.028;5.526;2023-02-10T01:28:58;18.40;35.20
40289;DHT22;28991;52.028;5.526;2023-02-10T01:31:24;19.20;35.60
40289;DHT22;28991;52.028;5.526;2023-02-10T01:33:51;18.60;35.30
40289;DHT22;28991;52.028;5.526;2023-02-10T01:36:18;18.50;35.30
40289;DHT22;28991;52.028;5.526;2023-02-10T01:38:44;18.60;35.40
40289;DHT22;28991;52.028;5.526;2023-02-10T01:41:11;18.60;35.30
40289;DHT22;28991;52.028;5.526;2023-02-10T01:46:20;18.70;35.40
40289;DHT22;28991;52.028;5.526;2023-02-10T01:48:46;18.40;35.30
40289;DHT22;28991;52.028;5.526;2023-02-10T01:51:13;18.50;35.30
40289;DHT22;28991;52.028;5.526;2023-02-10T01:53:39;18.50;35.30
40289;DHT22;28991;52.028;5.526;2023-02-10T01:56:05;18.90;35.60
40289;DHT22;28991;52.028;5.526;2023-02-10T01:58:33;18.40;35.30
40289;DHT22;28991;52.028;5.526;2023-02-10T02:01:00;18.70;35.50
40289;DHT22;28991;52.028;5.526;2023-02-10T02:03:26;18.10;35.20
40289;DHT22;28991;52.028;5.526;2023-02-10T02:05:52;18.90;35.60
40289;DHT22;28991;52.028;5.526;2023-02-10T02:08:20;19.00;35.70
40289;DHT22;28991;52.028;5.526;2023-02-10T02:11:07;18.50;35.40
40289;DHT22;28991;52.028;5.526;2023-02-10T02:30:38;18.50;35.50
40289;DHT22;28991;52.028;5.526;2023-02-10T02:32:44;18.60;35.60
40289;DHT22;28991;52.028;5.526;2023-02-10T02:35:21;18.60;35.60
40289;DHT22;28991;52.028;5.526;2023-02-10T02:37:50;18.50;35.50
40289;DHT22;28991;52.028;5.526;2023-02-10T02:40:18;18.60;35.60
40289;DHT22;28991;52.028;5.526;2023-02-10T02:42:43;18.50;35.60
40289;DHT22;28991;52.028;5.526;2023-02-10T02:45:19;18.40;35.50
40289;DHT22;28991;52.028;5.526;2023-02-10T02:47:52;18.70;35.60
40289;DHT22;28991;52.028;5.526;2023-02-10T02:50:24;18.70;35.70
40289;DHT22;28991;52.028;5.526;2023-02-10T02:55:55;18.50;35.60
40289;DHT22;28991;52.028;5.526;2023-02-10T02:58:55;18.80;35.80
40289;DHT22;28991;52.028;5.526;2023-02-10T03:01:36;18.60;35.60
40289;DHT22;28991;52.028;5.526;2023-02-10T03:04:04;18.40;35.60
40289;DHT22;28991;52.028;5.526;2023-02-10T03:06:30;18.50;35.70
40289;DHT22;28991;52.028;5.526;2023-02-10T03:08:56;18.60;35.70
40289;DHT22;28991;52.028;5.526;2023-02-10T03:11:21;18.60;35.70
40289;DHT22;28991;52.028;5.526;2023-02-10T03:13:47;18.60;35.80
40289;DHT22;28991;52.028;5.526;2023-02-10T03:16:13;18.50;35.70
40289;DHT22;28991;52.028;5.526;2023-02-10T03:18:38;18.50;35.70
40289;DHT22;28991;52.028;5.526;2023-02-10T03:21:04;18.80;35.90
40289;DHT22;28991;52.028;5.526;2023-02-10T03:23:30;18.60;35.80
40289;DHT22;28991;52.028;5.526;2023-02-10T03:25:58;18.60;35.80
40289;DHT22;28991;52.028;5.526;2023-02-10T03:28:24;18.40;35.70
40289;DHT22;28991;52.028;5.526;2023-02-10T03:30:50;18.50;35.70
40289;DHT22;28991;52.028;5.526;2023-02-10T03:33:17;19.00;36.00
40289;DHT22;28991;52.028;5.526;2023-02-10T03:35:44;18.30;35.60
40289;DHT22;28991;52.028;5.526;2023-02-10T03:38:11;18.40;35.70
40289;DHT22;28991;52.028;5.526;2023-02-10T03:40:37;18.80;35.90
40289;DHT22;28991;52.028;5.526;2023-02-10T03:43:03;18.60;35.80
40289;DHT22;28991;52.028;5.526;2023-02-10T03:45:28;18.50;36.30
40289;DHT22;28991;52.028;5.526;2023-02-10T03:47:54;18.50;35.80
40289;DHT22;28991;52.028;5.526;2023-02-10T03:50:20;18.40;35.80
40289;DHT22;28991;52.028;5.526;2023-02-10T03:52:46;18.60;35.90
40289;DHT22;28991;52.028;5.526;2023-02-10T03:55:11;18.50;35.80
40289;DHT22;28991;52.028;5.526;2023-02-10T03:57:43;18.30;35.70
40289;DHT22;28991;52.028;5.526;2023-02-10T04:00:10;18.50;35.90
40289;DHT22;28991;52.028;5.526;2023-02-10T04:02:36;18.50;35.80
40289;DHT22;28991;52.028;5.526;2023-02-10T04:05:01;18.50;35.80
40289;DHT22;28991;52.028;5.526;2023-02-10T04:07:27;18.50;35.80
40289;DHT22;28991;52.028;5.526;2023-02-10T04:09:52;18.30;35.70
40289;DHT22;28991;52.028;5.526;2023-02-10T04:12:18;17.80;35.50
40289;DHT22;28991;52.028;5.526;2023-02-10T04:14:44;19.00;36.10
40289;DHT22;28991;52.028;5.526;2023-02-10T04:17:09;18.70;36.00
40289;DHT22;28991;52.028;5.526;2023-02-10T04:19:35;18.60;36.00
40289;DHT22;28991;52.028;5.526;2023-02-10T04:22:00;18.20;35.70
40289;DHT22;28991;52.028;5.526;2023-02-10T04:24:26;18.40;35.90
40289;DHT22;28991;52.028;5.526;2023-02-10T04:26:52;18.00;35.60
40289;DHT22;28991;52.028;5.526;2023-02-10T04:29:17;18.80;36.10
40289;DHT22;28991;52.028;5.526;2023-02-10T04:31:43;18.50;36.00
40289;DHT22;28991;52.028;5.526;2023-02-10T04:34:08;19.10;36.30
40289;DHT22;28991;52.028;5.526;2023-02-10T04:36:34;18.50;36.00
40289;DHT22;28991;52.028;5.526;2023-02-10T04:38:59;18.50;36.00
40289;DHT22;28991;52.028;5.526;2023-02-10T04:41:25;18.40;35.90
40289;DHT22;28991;52.028;5.526;2023-02-10T04:43:51;18.50;36.00
40289;DHT22;28991;52.028;5.526;2023-02-10T04:46:16;18.40;36.00
40289;DHT22;28991;52.028;5.526;2023-02-10T04:48:42;18.50;36.00
40289;DHT22;28991;52.028;5.526;2023-02-10T04:51:09;18.00;35.80
40289;DHT22;28991;52.028;5.526;2023-02-10T04:53:36;18.40;36.00
40289;DHT22;28991;52.028;5.526;2023-02-10T04:56:02;18.30;35.90
40289;DHT22;28991;52.028;5.526;2023-02-10T04:58:29;18.50;36.00
40289;DHT22;28991;52.028;5.526;2023-02-10T05:00:55;18.40;36.00
40289;DHT22;28991;52.028;5.526;2023-02-10T05:03:21;18.50;36.00
40289;DHT22;28991;52.028;5.526;2023-02-10T05:05:47;18.40;36.00
40289;DHT22;28991;52.028;5.526;2023-02-10T05:08:12;18.50;36.10
40289;DHT22;28991;52.028;5.526;2023-02-10T05:10:38;18.40;36.00
40289;DHT22;28991;52.028;5.526;2023-02-10T05:13:04;19.20;36.40
40289;DHT22;28991;52.028;5.526;2023-02-10T05:15:30;18.70;36.20
40289;DHT22;28991;52.028;5.526;2023-02-10T05:17:55;18.30;36.00
40289;DHT22;28991;52.028;5.526;2023-02-10T05:20:21;18.20;36.50
40289;DHT22;28991;52.028;5.526;2023-02-10T05:22:47;18.20;36.00
40289;DHT22;28991;52.028;5.526;2023-02-10T05:25:12;18.50;36.10
40289;DHT22;28991;52.028;5.526;2023-02-10T05:27:38;17.50;35.60
40289;DHT22;28991;52.028;5.526;2023-02-10T05:30:05;17.80;35.80
40289;DHT22;28991;52.028;5.526;2023-02-10T05:32:32;18.20;36.00
40289;DHT22;28991;52.028;5.526;2023-02-10T05:34:58;18.50;36.10
40289;DHT22;28991;52.028;5.526;2023-02-10T05:37:23;18.00;35.90
40289;DHT22;28991;52.028;5.526;2023-02-10T05:39:49;18.50;36.20
40289;DHT22;28991;52.028;5.526;2023-02-10T05:42:14;18.50;36.10
40289;DHT22;28991;52.028;5.526;2023-02-10T05:44:40;18.30;36.10
40289;DHT22;28991;52.028;5.526;2023-02-10T05:47:06;18.70;36.30
40289;DHT22;28991;52.028;5.526;2023-02-10T05:49:31;18.00;36.00
40289;DHT22;28991;52.028;5.526;2023-02-10T05:51:57;19.00;36.50
40289;DHT22;28991;52.028;5.526;2023-02-10T05:54:22;18.70;36.30
40289;DHT22;28991;52.028;5.526;2023-02-10T05:56:48;18.40;36.20
40289;DHT22;28991;52.028;5.526;2023-02-10T05:59:15;18.40;36.20
40289;DHT22;28991;52.028;5.526;2023-02-10T06:01:42;18.50;36.20
40289;DHT22;28991;52.028;5.526;2023-02-10T06:04:07;18.40;36.20
40289;DHT22;28991;52.028;5.526;2023-02-10T06:06:33;17.70;35.90
40289;DHT22;28991;52.028;5.526;2023-02-10T06:08:58;18.00;36.00
40289;DHT22;28991;52.028;5.526;2023-02-10T06:11:24;18.40;36.20
40289;DHT22;28991;52.028;5.526;2023-02-10T06:13:49;18.30;36.40
40289;DHT22;28991;52.028;5.526;2023-02-10T06:16:15;18.40;36.30
40289;DHT22;28991;52.028;5.526;2023-02-10T06:18:41;18.20;35.90
40289;DHT22;28991;52.028;5.526;2023-02-10T06:21:07;18.80;35.80
40289;DHT22;28991;52.028;5.526;2023-02-10T06:23:34;19.20;35.50
40289;DHT22;28991;52.028;5.526;2023-02-10T06:26:00;18.60;34.90
40289;DHT22;28991;52.028;5.526;2023-02-10T06:28:27;19.00;34.70
40289;DHT22;28991;52.028;5.526;2023-02-10T06:30:52;18.70;34.80
40289;DHT22;28991;52.028;5.526;2023-02-10T06:33:18;18.60;35.00
40289;DHT22;28991;52.028;5.526;2023-02-10T06:35:45;18.70;35.30
40289;DHT22;28991;52.028;5.526;2023-02-10T06:38:11;19.50;36.40
40289;DHT22;28991;52.028;5.526;2023-02-10T06:40:38;19.40;36.30
40289;DHT22;28991;52.028;5.526;2023-02-10T06:43:03;18.90;35.40
40289;DHT22;28991;52.028;5.526;2023-02-10T06:45:29;18.90;35.50
40289;DHT22;28991;52.028;5.526;2023-02-10T06:47:55;18.90;35.10
40289;DHT22;28991;52.028;5.526;2023-02-10T06:50:21;18.90;35.00
40289;DHT22;28991;52.028;5.526;2023-02-10T06:52:47;19.00;34.80
40289;DHT22;28991;52.028;5.526;2023-02-10T06:55:14;18.80;34.60
40289;DHT22;28991;52.028;5.526;2023-02-10T06:57:40;19.00;34.60
40289;DHT22;28991;52.028;5.526;2023-02-10T07:00:08;19.00;34.50
40289;DHT22;28991;52.028;5.526;2023-02-10T07:02:35;19.00;34.40
40289;DHT22;28991;52.028;5.526;2023-02-10T07:05:01;19.00;34.40
40289;DHT22;28991;52.028;5.526;2023-02-10T07:07:29;19.00;34.50
40289;DHT22;28991;52.028;5.526;2023-02-10T07:09:54;18.90;34.60
40289;DHT22;28991;52.028;5.526;2023-02-10T07:12:20;19.00;34.60
40289;DHT22;28991;52.028;5.526;2023-02-10T07:14:46;19.00;34.70
40289;DHT22;28991;52.028;5.526;2023-02-10T07:17:11;18.80;34.70
40289;DHT22;28991;52.028;5.526;2023-02-10T07:19:37;18.90;34.70
40289;DHT22;28991;52.028;5.526;2023-02-10T07:22:03;19.10;34.90
40289;DHT22;28991;52.028;5.526;2023-02-10T07:24:32;19.10;34.90
40289;DHT22;28991;52.028;5.526;2023-02-10T07:26:58;19.00;34.80
40289;DHT22;28991;52.028;5.526;2023-02-10T07:29:23;19.30;34.90
40289;DHT22;28991;52.028;5.526;2023-02-10T07:31:49;19.00;34.80
40289;DHT22;28991;52.028;5.526;2023-02-10T07:34:15;19.30;34.90
40289;DHT22;28991;52.028;5.526;2023-02-10T07:36:40;19.20;34.80
40289;DHT22;28991;52.028;5.526;2023-02-10T07:39:06;19.40;35.00
40289;DHT22;28991;52.028;5.526;2023-02-10T07:41:33;19.20;34.80
40289;DHT22;28991;52.028;5.526;2023-02-10T07:43:59;19.30;34.70
40289;DHT22;28991;52.028;5.526;2023-02-10T07:46:24;19.30;34.60
40289;DHT22;28991;52.028;5.526;2023-02-10T07:48:50;19.40;34.50
40289;DHT22;28991;52.028;5.526;2023-02-10T07:51:15;19.70;34.40
40289;DHT22;28991;52.028;5.526;2023-02-10T07:53:41;19.30;34.10
40289;DHT22;28991;52.028;5.526;2023-02-10T07:56:08;19.40;34.30
40289;DHT22;28991;52.028;5.526;2023-02-10T07:58:35;19.40;34.30
40289;DHT22;28991;52.028;5.526;2023-02-10T08:01:08;19.50;34.30
40289;DHT22;28991;52.028;5.526;2023-02-10T08:03:34;19.50;34.30
40289;DHT22;28991;52.028;5.526;2023-02-10T08:05:59;19.50;34.40
40289;DHT22;28991;52.028;5.526;2023-02-10T08:08:25;19.60;34.50
40289;DHT22;28991;52.028;5.526;2023-02-10T08:10:51;19.20;34.40
40289;DHT22;28991;52.028;5.526;2023-02-10T08:13:16;19.60;34.60
40289;DHT22;28991;52.028;5.526;2023-02-10T08:15:42;19.60;34.60
40289;DHT22;28991;52.028;5.526;2023-02-10T08:18:07;19.70;34.70
40289;DHT22;28991;52.028;5.526;2023-02-10T08:20:33;19.60;34.70
40289;DHT22;28991;52.028;5.526;2023-02-10T08:22:58;19.60;34.70
40289;DHT22;28991;52.028;5.526;2023-02-10T08:25:25;19.80;34.70
40289;DHT22;28991;52.028;5.526;2023-02-10T08:27:51;19.70;34.70
40289;DHT22;28991;52.028;5.526;2023-02-10T08:30:17;19.70;34.60
40289;DHT22;28991;52.028;5.526;2023-02-10T08:32:42;19.60;34.60
40289;DHT22;28991;52.028;5.526;2023-02-10T08:35:08;19.70;34.50
40289;DHT22;28991;52.028;5.526;2023-02-10T08:37:34;19.30;34.30
40289;DHT22;28991;52.028;5.526;2023-02-10T08:39:59;19.70;34.60
40289;DHT22;28991;52.028;5.526;2023-02-10T08:42:25;19.90;34.60
40289;DHT22;28991;52.028;5.526;2023-02-10T08:44:51;19.80;34.50
40289;DHT22;28991;52.028;5.526;2023-02-10T08:47:17;19.90;34.50
40289;DHT22;28991;52.028;5.526;2023-02-10T08:49:42;19.90;34.50
40289;DHT22;28991;52.028;5.526;2023-02-10T08:52:09;19.90;34.30
40289;DHT22;28991;52.028;5.526;2023-02-10T08:54:35;19.90;34.20
40289;DHT22;28991;52.028;5.526;2023-02-10T08:57:00;19.90;34.30
40289;DHT22;28991;52.028;5.526;2023-02-10T08:59:26;20.00;34.40
40289;DHT22;28991;52.028;5.526;2023-02-10T09:01:52;20.00;34.40
40289;DHT22;28991;52.028;5.526;2023-02-10T09:04:17;20.00;34.30
40289;DHT22;28991;52.028;5.526;2023-02-10T09:06:43;20.10;34.40
40289;DHT22;28991;52.028;5.526;2023-02-10T09:09:10;20.10;34.40
40289;DHT22;28991;52.028;5.526;2023-02-10T09:11:37;20.10;34.30
40289;DHT22;28991;52.028;5.526;2023-02-10T09:14:02;20.10;34.30
40289;DHT22;28991;52.028;5.526;2023-02-10T09:16:28;19.80;34.10
40289;DHT22;28991;52.028;5.526;2023-02-10T09:18:54;20.20;34.30
40289;DHT22;28991;52.028;5.526;2023-02-10T09:21:19;20.40;34.30
40289;DHT22;28991;52.028;5.526;2023-02-10T09:23:45;20.20;34.10
40289;DHT22;28991;52.028;5.526;2023-02-10T09:26:11;20.30;34.00
40289;DHT22;28991;52.028;5.526;2023-02-10T09:28:37;20.30;34.00
40289;DHT22;28991;52.028;5.526;2023-02-10T09:31:08;20.30;34.00
40289;DHT22;28991;52.028;5.526;2023-02-10T09:33:34;20.40;34.10
40289;DHT22;28991;52.028;5.526;2023-02-10T09:36:03;20.30;34.00
40289;DHT22;28991;52.028;5.526;2023-02-10T09:38:29;20.30;33.90
40289;DHT22;28991;52.028;5.526;2023-02-10T09:43:59;20.40;34.00
40289;DHT22;28991;52.028;5.526;2023-02-10T09:54:13;20.40;34.10
40289;DHT22;28991;52.028;5.526;2023-02-10T09:56:40;20.40;34.20
40289;DHT22;28991;52.028;5.526;2023-02-10T09:59:13;20.50;34.20
40289;DHT22;28991;52.028;5.526;2023-02-10T10:01:44;20.60;34.30
40289;DHT22;28991;52.028;5.526;2023-02-10T10:04:17;20.60;34.20
40289;DHT22;28991;52.028;5.526;2023-02-10T10:06:49;20.60;34.20
40289;DHT22;28991;52.028;5.526;2023-02-10T10:09:35;20.70;34.20
40289;DHT22;28991;52.028;5.526;2023-02-10T10:12:01;20.60;34.20
40289;DHT22;28991;52.028;5.526;2023-02-10T10:14:35;20.60;34.30
40289;DHT22;28991;52.028;5.526;2023-02-10T10:19:55;20.60;34.40
40289;DHT22;28991;52.028;5.526;2023-02-10T10:30:48;20.70;34.40
40289;DHT22;28991;52.028;5.526;2023-02-10T10:33:23;20.70;34.30
40289;DHT22;28991;52.028;5.526;2023-02-10T10:35:50;21.00;34.40
40289;DHT22;28991;52.028;5.526;2023-02-10T10:38:23;20.80;34.30
40289;DHT22;28991;52.028;5.526;2023-02-10T10:40:53;20.90;34.30
40289;DHT22;28991;52.028;5.526;2023-02-10T10:43:29;20.90;34.30
40289;DHT22;28991;52.028;5.526;2023-02-10T10:46:11;20.90;34.30
40289;DHT22;28991;52.028;5.526;2023-02-10T10:48:39;21.00;34.40
40289;DHT22;28991;52.028;5.526;2023-02-10T10:51:05;21.00;34.40
40289;DHT22;28991;52.028;5.526;2023-02-10T10:53:41;21.00;34.40
40289;DHT22;28991;52.028;5.526;2023-02-10T10:56:15;21.00;34.30
40289;DHT22;28991;52.028;5.526;2023-02-10T10:58:44;21.00;34.30
40289;DHT22;28991;52.028;5.526;2023-02-10T11:01:12;21.10;34.30
40289;DHT22;28991;52.028;5.526;2023-02-10T11:03:38;21.10;34.30
40289;DHT22;28991;52.028;5.526;2023-02-10T11:06:05;21.10;34.30
40289;DHT22;28991;52.028;5.526;2023-02-10T11:08:45;21.10;34.30
40289;DHT22;28991;52.028;5.526;2023-02-10T11:11:15;21.10;34.30
40289;DHT22;28991;52.028;5.526;2023-02-10T11:13:50;21.10;34.30
40289;DHT22;28991;52.028;5.526;2023-02-10T11:16:18;21.10;34.40
40289;DHT22;28991;52.028;5.526;2023-02-10T11:18:55;21.10;34.40
40289;DHT22;28991;52.028;5.526;2023-02-10T11:21:33;21.10;34.30
40289;DHT22;28991;52.028;5.526;2023-02-10T11:23:58;21.10;34.20
40289;DHT22;28991;52.028;5.526;2023-02-10T11:26:26;21.20;34.30
40289;DHT22;28991;52.028;5.526;2023-02-10T11:28:53;21.20;34.20
40289;DHT22;28991;52.028;5.526;2023-02-10T11:31:28;21.20;34.10
40289;DHT22;28991;52.028;5.526;2023-02-10T11:34:00;21.20;34.00
40289;DHT22;28991;52.028;5.526;2023-02-10T11:36:53;21.20;33.90
40289;DHT22;28991;52.028;5.526;2023-02-10T11:39:23;21.30;33.90
40289;DHT22;28991;52.028;5.526;2023-02-10T11:41:49;21.30;33.80
40289;DHT22;28991;52.028;5.526;2023-02-10T11:44:28;21.30;33.80
40289;DHT22;28991;52.028;5.526;2023-02-10T11:46:59;21.40;33.80
40289;DHT22;28991;52.028;5.526;2023-02-10T11:49:27;21.50;33.80
40289;DHT22;28991;52.028;5.526;2023-02-10T11:51:58;21.30;33.70
40289;DHT22;28991;52.028;5.526;2023-02-10T11:54:24;21.30;33.70
40289;DHT22;28991;52.028;5.526;2023-02-10T11:57:04;21.30;33.70
40289;DHT22;28991;52.028;5.526;2023-02-10T12:05:28;21.30;33.70
40289;DHT22;28991;52.028;5.526;2023-02-10T12:10:57;21.30;34.40
40289;DHT22;28991;52.028;5.526;2023-02-10T12:25:06;21.20;33.90
40289;DHT22;28991;52.028;5.526;2023-02-10T12:27:53;21.30;34.10
40289;DHT22;28991;52.028;5.526;2023-02-10T12:30:36;21.20;34.10
40289;DHT22;28991;52.028;5.526;2023-02-10T12:36:27;21.20;34.20
40289;DHT22;28991;52.028;5.526;2023-02-10T12:39:14;21.30;34.40
40289;DHT22;28991;52.028;5.526;2023-02-10T12:47:26;21.20;34.20
40289;DHT22;28991;52.028;5.526;2023-02-10T12:52:49;21.30;34.20
40289;DHT22;28991;52.028;5.526;2023-02-10T12:55:19;21.30;34.20
40289;DHT22;28991;52.028;5.526;2023-02-10T12:57:57;21.30;34.30
40289;DHT22;28991;52.028;5.526;2023-02-10T13:01:08;21.30;34.10
40289;DHT22;28991;52.028;5.526;2023-02-10T13:03:37;21.30;34.10
40289;DHT22;28991;52.028;5.526;2023-02-10T13:06:25;21.30;34.00
40289;DHT22;28991;52.028;5.526;2023-02-10T13:08:57;21.30;34.00
40289;DHT22;28991;52.028;5.526;2023-02-10T13:14:28;21.30;33.90
40289;DHT22;28991;52.028;5.526;2023-02-10T13:16:56;21.20;33.90
40289;DHT22;28991;52.028;5.526;2023-02-10T13:22:26;21.20;33.80
40289;DHT22;28991;52.028;5.526;2023-02-10T13:25:18;21.20;33.80
40289;DHT22;28991;52.028;5.526;2023-02-10T13:28:00;21.10;34.30
40289;DHT22;28991;52.028;5.526;2023-02-10T13:35:55;21.00;33.90
40289;DHT22;28991;52.028;5.526;2023-02-10T13:38:22;21.00;33.90
40289;DHT22;28991;52.028;5.526;2023-02-10T13:40:53;21.00;33.80
40289;DHT22;28991;52.028;5.526;2023-02-10T13:43:40;21.00;34.00
40289;DHT22;28991;52.028;5.526;2023-02-10T13:46:19;21.00;33.90
40289;DHT22;28991;52.028;5.526;2023-02-10T13:48:52;20.90;33.90
40289;DHT22;28991;52.028;5.526;2023-02-10T13:51:31;21.00;34.00
40289;DHT22;28991;52.028;5.526;2023-02-10T13:53:58;20.90;33.90
40289;DHT22;28991;52.028;5.526;2023-02-10T13:56:30;21.30;34.20
40289;DHT22;28991;52.028;5.526;2023-02-10T13:58:58;20.90;34.00
40289;DHT22;28991;52.028;5.526;2023-02-10T14:01:31;20.90;34.00
40289;DHT22;28991;52.028;5.526;2023-02-10T14:03:57;20.90;34.00
40289;DHT22;28991;52.028;5.526;2023-02-10T14:06:41;20.80;34.00
40289;DHT22;28991;52.028;5.526;2023-02-10T14:09:37;21.10;34.20
40289;DHT22;28991;52.028;5.526;2023-02-10T14:12:05;20.90;34.20
40289;DHT22;28991;52.028;5.526;2023-02-10T14:14:34;20.80;34.20
40289;DHT22;28991;52.028;5.526;2023-02-10T14:19:40;20.80;34.20
40289;DHT22;28991;52.028;5.526;2023-02-10T14:22:35;20.80;34.30
40289;DHT22;28991;52.028;5.526;2023-02-10T14:25:18;20.80;34.40
40289;DHT22;28991;52.028;5.526;2023-02-10T14:27:53;20.80;34.70
40289;DHT22;28991;52.028;5.526;2023-02-10T14:32:50;20.90;34.70
40289;DHT22;28991;52.028;5.526;2023-02-10T14:35:26;20.90;34.60
40289;DHT22;28991;52.028;5.526;2023-02-10T14:37:55;20.90;34.60
40289;DHT22;28991;52.028;5.526;2023-02-10T14:40:23;20.90;34.60
40289;DHT22;28991;52.028;5.526;2023-02-10T14:42:49;20.90;34.60
40289;DHT22;28991;52.028;5.526;2023-02-10T14:47:46;20.90;34.60
40289;DHT22;28991;52.028;5.526;2023-02-10T14:50:34;20.90;34.60
40289;DHT22;28991;52.028;5.526;2023-02-10T14:53:02;20.80;34.60
40289;DHT22;28991;52.028;5.526;2023-02-10T14:58:18;21.00;34.90
40289;DHT22;28991;52.028;5.526;2023-02-10T15:01:01;20.80;34.90
40289;DHT22;28991;52.028;5.526;2023-02-10T15:03:27;20.70;34.90
40289;DHT22;28991;52.028;5.526;2023-02-10T15:05:54;20.60;35.00
40289;DHT22;28991;52.028;5.526;2023-02-10T15:08:37;20.60;34.90
40289;DHT22;28991;52.028;5.526;2023-02-10T15:11:07;20.60;35.10
40289;DHT22;28991;52.028;5.526;2023-02-10T15:13:37;20.50;35.00
40289;DHT22;28991;52.028;5.526;2023-02-10T15:16:06;20.50;35.30
40289;DHT22;28991;52.028;5.526;2023-02-10T15:18:36;20.60;35.40
40289;DHT22;28991;52.028;5.526;2023-02-10T15:21:05;20.60;35.40
40289;DHT22;28991;52.028;5.526;2023-02-10T15:23:32;20.60;35.50
40289;DHT22;28991;52.028;5.526;2023-02-10T15:26:05;20.60;35.50
40289;DHT22;28991;52.028;5.526;2023-02-10T15:28:33;20.60;35.50
40289;DHT22;28991;52.028;5.526;2023-02-10T15:31:24;20.60;35.40
40289;DHT22;28991;52.028;5.526;2023-02-10T15:33:58;20.70;35.20
40289;DHT22;28991;52.028;5.526;2023-02-10T15:41:30;20.60;35.00
40289;DHT22;28991;52.028;5.526;2023-02-10T15:43:56;20.60;35.70
40289;DHT22;28991;52.028;5.526;2023-02-10T15:46:23;20.50;35.70
40289;DHT22;28991;52.028;5.526;2023-02-10T15:48:49;20.50;35.20
40289;DHT22;28991;52.028;5.526;2023-02-10T15:51:26;20.50;35.30
40289;DHT22;28991;52.028;5.526;2023-02-10T15:53:53;20.40;35.30
40289;DHT22;28991;52.028;5.526;2023-02-10T15:56:23;20.30;35.40
40289;DHT22;28991;52.028;5.526;2023-02-10T15:58:50;20.30;35.40
40289;DHT22;28991;52.028;5.526;2023-02-10T16:01:15;20.30;35.50
40289;DHT22;28991;52.028;5.526;2023-02-10T16:03:41;20.20;35.60
40289;DHT22;28991;52.028;5.526;2023-02-10T16:06:11;20.10;35.60
40289;DHT22;28991;52.028;5.526;2023-02-10T16:08:38;20.20;35.70
40289;DHT22;28991;52.028;5.526;2023-02-10T16:11:03;20.10;35.70
40289;DHT22;28991;52.028;5.526;2023-02-10T16:13:29;20.00;35.70
40289;DHT22;28991;52.028;5.526;2023-02-10T16:15:55;20.10;35.80
40289;DHT22;28991;52.028;5.526;2023-02-10T16:18:23;20.00;35.80
40289;DHT22;28991;52.028;5.526;2023-02-10T16:20:49;20.00;35.90
40289;DHT22;28991;52.028;5.526;2023-02-10T16:23:18;20.00;36.00
40289;DHT22;28991;52.028;5.526;2023-02-10T16:25:44;19.90;36.00
40289;DHT22;28991;52.028;5.526;2023-02-10T16:28:13;19.90;36.10
40289;DHT22;28991;52.028;5.526;2023-02-10T16:30:39;19.90;36.20
40289;DHT22;28991;52.028;5.526;2023-02-10T16:33:04;19.90;36.20
40289;DHT22;28991;52.028;5.526;2023-02-10T16:35:30;19.90;36.30
40289;DHT22;28991;52.028;5.526;2023-02-10T16:37:57;20.40;36.60
40289;DHT22;28991;52.028;5.526;2023-02-10T16:40:34;19.80;36.30
40289;DHT22;28991;52.028;5.526;2023-02-10T16:43:00;19.80;36.40
40289;DHT22;28991;52.028;5.526;2023-02-10T16:45:28;19.80;36.50
40289;DHT22;28991;52.028;5.526;2023-02-10T16:47:55;19.80;36.50
40289;DHT22;28991;52.028;5.526;2023-02-10T16:52:57;19.70;36.50
40289;DHT22;28991;52.028;5.526;2023-02-10T16:55:23;19.70;36.60
40289;DHT22;28991;52.028;5.526;2023-02-10T16:57:49;20.50;37.00
40289;DHT22;28991;52.028;5.526;2023-02-10T17:00:16;19.90;36.70
40289;DHT22;28991;52.028;5.526;2023-02-10T17:02:42;19.70;36.70
40289;DHT22;28991;52.028;5.526;2023-02-10T17:05:09;19.70;37.00
40289;DHT22;28991;52.028;5.526;2023-02-10T17:07:36;19.70;36.80
40289;DHT22;28991;52.028;5.526;2023-02-10T17:10:03;19.70;36.80
40289;DHT22;28991;52.028;5.526;2023-02-10T17:12:29;19.70;36.90
40289;DHT22;28991;52.028;5.526;2023-02-10T17:14:54;19.70;37.00
40289;DHT22;28991;52.028;5.526;2023-02-10T17:17:20;19.70;37.00
40289;DHT22;28991;52.028;5.526;2023-02-10T17:19:46;19.70;37.00
40289;DHT22;28991;52.028;5.526;2023-02-10T17:22:11;19.70;37.10
40289;DHT22;28991;52.028;5.526;2023-02-10T17:24:37;20.20;37.40